sensor_id;sensor_type;location;lat;lon;timestamp;pressure;altitude;pressure_sealevel;temperature;humidity
28626;BME280;18905;42.668;23.364;2023-03-03T00:00:40;95146.22;;;4.57;100.00
28626;BME280;18905;42.668;23.364;2023-03-03T00:03:07;95146.78;;;4.54;100.00
28626;BME280;18905;42.668;23.364;2023-03-03T00:05:35;95156.94;;;4.57;100.00
28626;BME280;18905;42.668;23.364;2023-03-03T00:08:01;95152.19;;;4.44;100.00
28626;BME280;18905;42.668;23.364;2023-03-03T00:10:27;95159.38;;;4.53;100.00
28626;BME280;18905;42.668;23.364;2023-03-03T00:12:53;95148.44;;;4.45;100.00
28626;BME280;18905;42.668;23.364;2023-03-03T00:15:21;95150.84;;;4.46;100.00
28626;BME280;18905;42.668;23.364;2023-03-03T00:17:47;95124.97;;;4.37;100.00
28626;BME280;18905;42.668;23.364;2023-03-03T00:23:16;95155.97;;;4.43;100.00
28626;BME280;18905;42.668;23.364;2023-03-03T00:25:44;95136.41;;;4.47;100.00
28626;BME280;18905;42.668;23.364;2023-03-03T00:30:48;95145.81;;;4.40;100.00
28626;BME280;18905;42.668;23.364;2023-03-03T00:33:29;95145.03;;;4.34;100.00
28626;BME280;18905;42.668;23.364;2023-03-03T00:36:19;95142.41;;;4.29;100.00
28626;BME280;18905;42.668;23.364;2023-03-03T00:38:47;95149.56;;;4.39;100.00
28626;BME280;18905;42.668;23.364;2023-03-03T00:41:24;95132.50;;;4.30;100.00
28626;BME280;18905;42.668;23.364;2023-03-03T00:43:51;95118.66;;;4.23;100.00
28626;BME280;18905;42.668;23.364;2023-03-03T00:46:17;95083.84;;;3.94;100.00
28626;BME280;18905;42.668;23.364;2023-03-03T00:48:44;95130.94;;;4.29;100.00
28626;BME280;18905;42.668;23.364;2023-03-03T00:53:45;95096.25;;;4.19;100.00
28626;BME280;18905;42.668;23.364;2023-03-03T00:56:10;95111.31;;;4.38;100.00
28626;BME280;18905;42.668;23.364;2023-03-03T00:58:36;95104.34;;;4.42;100.00
28626;BME280;18905;42.668;23.364;2023-03-03T01:01:01;95105.13;;;4.48;100.00
28626;BME280;18905;42.668;23.364;2023-03-03T01:03:26;95093.13;;;4.45;100.00
28626;BME280;18905;42.668;23.364;2023-03-03T01:05:52;95093.94;;;4.41;100.00
28626;BME280;18905;42.668;23.364;2023-03-03T01:08:18;95051.41;;;4.11;100.00
28626;BME280;18905;42.668;23.364;2023-03-03T01:10:51;95094.59;;;4.28;100.00
28626;BME280;18905;42.668;23.364;2023-03-03T01:13:21;95066.38;;;4.07;100.00
28626;BME280;18905;42.668;23.364;2023-03-03T01:15:48;95057.91;;;3.95;100.00
28626;BME280;18905;42.668;23.364;2023-03-03T01:18:14;95067.72;;;4.09;100.00
28626;BME280;18905;42.668;23.364;2023-03-03T01:20:40;95057.13;;;3.94;100.00
28626;BME280;18905;42.668;23.364;2023-03-03T01:23:06;95091.69;;;4.19;100.00
28626;BME280;18905;42.668;23.364;2023-03-03T01:25:32;95088.31;;;4.04;100.00
28626;BME280;18905;42.668;23.364;2023-03-03T01:27:58;95078.19;;;4.01;100.00
28626;BME280;18905;42.668;23.364;2023-03-03T01:30:24;95098.47;;;4.07;100.00
28626;BME280;18905;42.668;23.364;2023-03-03T01:32:50;95046.00;;;3.77;100.00
28626;BME280;18905;42.668;23.364;2023-03-03T01:35:16;95032.84;;;3.86;100.00
28626;BME280;18905;42.668;23.364;2023-03-03T01:37:41;95086.06;;;4.21;100.00
28626;BME280;18905;42.668;23.364;2023-03-03T01:40:16;95090.09;;;4.18;100.00
28626;BME280;18905;42.668;23.364;2023-03-03T01:42:42;95059.19;;;4.07;100.00
28626;BME280;18905;42.668;23.364;2023-03-03T01:45:20;95075.72;;;4.09;100.00
28626;BME280;18905;42.668;23.364;2023-03-03T01:47:59;95083.16;;;4.17;100.00
28626;BME280;18905;42.668;23.364;2023-03-03T01:50:31;95061.88;;;4.02;100.00
28626;BME280;18905;42.668;23.364;2023-03-03T01:53:01;95082.63;;;4.15;100.00
28626;BME280;18905;42.668;23.364;2023-03-03T01:55:33;95083.16;;;4.17;100.00
28626;BME280;18905;42.668;23.364;2023-03-03T01:58:06;95073.56;;;4.11;100.00
28626;BME280;18905;42.668;23.364;2023-03-03T02:00:35;95064.59;;;3.92;100.00
28626;BME280;18905;42.668;23.364;2023-03-03T02:03:02;95063.81;;;3.92;100.00
28626;BME280;18905;42.668;23.364;2023-03-03T02:05:28;95043.53;;;3.86;100.00
28626;BME280;18905;42.668;23.364;2023-03-03T02:07:54;95079.06;;;4.30;100.00
28626;BME280;18905;42.668;23.364;2023-03-03T02:10:20;95081.19;;;4.33;100.00
28626;BME280;18905;42.668;23.364;2023-03-03T02:12:52;95071.03;;;4.30;100.00
28626;BME280;18905;42.668;23.364;2023-03-03T02:15:21;95044.84;;;4.27;100.00
28626;BME280;18905;42.668;23.364;2023-03-03T02:17:50;95051.25;;;4.31;100.00
28626;BME280;18905;42.668;23.364;2023-03-03T02:20:25;95080.13;;;4.29;100.00
28626;BME280;18905;42.668;23.364;2023-03-03T02:22:58;95070.03;;;4.21;100.00
28626;BME280;18905;42.668;23.364;2023-03-03T02:25:42;95066.00;;;4.23;100.00
28626;BME280;18905;42.668;23.364;2023-03-03T02:28:09;95080.41;;;4.27;100.00
28626;BME280;18905;42.668;23.364;2023-03-03T02:30:38;95054.16;;;4.01;100.00
28626;BME280;18905;42.668;23.364;2023-03-03T02:33:04;95076.53;;;4.10;100.00
28626;BME280;18905;42.668;23.364;2023-03-03T02:40:57;95064.31;;;3.99;100.00
28626;BME280;18905;42.668;23.364;2023-03-03T02:43:26;95080.03;;;4.05;100.00
28626;BME280;18905;42.668;23.364;2023-03-03T02:45:53;95047.91;;;3.72;100.00
28626;BME280;18905;42.668;23.364;2023-03-03T02:48:19;95070.22;;;3.91;100.00
28626;BME280;18905;42.668;23.364;2023-03-03T02:50:44;95073.91;;;4.00;100.00
28626;BME280;18905;42.668;23.364;2023-03-03T02:53:10;95049.91;;;3.95;100.00
28626;BME280;18905;42.668;23.364;2023-03-03T02:55:35;95075.97;;;4.13;100.00
28626;BME280;18905;42.668;23.364;2023-03-03T02:58:01;95049.31;;;4.03;100.00
28626;BME280;18905;42.668;23.364;2023-03-03T03:00:26;95054.13;;;4.06;100.00
28626;BME280;18905;42.668;23.364;2023-03-03T03:02:51;95044.47;;;4.10;100.00
28626;BME280;18905;42.668;23.364;2023-03-03T03:05:17;95067.88;;;4.23;100.00
28626;BME280;18905;42.668;23.364;2023-03-03T03:07:42;95059.69;;;4.09;100.00
28626;BME280;18905;42.668;23.364;2023-03-03T03:10:08;95050.69;;;3.95;100.00
28626;BME280;18905;42.668;23.364;2023-03-03T03:12:33;95073.38;;;4.03;100.00
28626;BME280;18905;42.668;23.364;2023-03-03T03:14:59;95070.16;;;4.06;100.00
28626;BME280;18905;42.668;23.364;2023-03-03T03:17:25;95020.66;;;3.75;100.00
28626;BME280;18905;42.668;23.364;2023-03-03T03:19:50;95062.41;;;4.04;100.00
28626;BME280;18905;42.668;23.364;2023-03-03T03:22:15;95064.72;;;4.16;100.00
28626;BME280;18905;42.668;23.364;2023-03-03T03:24:41;95060.25;;;4.06;100.00
28626;BME280;18905;42.668;23.364;2023-03-03T03:27:07;95054.59;;;4.13;100.00
28626;BME280;18905;42.668;23.364;2023-03-03T03:29:33;95061.13;;;4.35;100.00
28626;BME280;18905;42.668;23.364;2023-03-03T03:31:58;95043.44;;;4.06;100.00
28626;BME280;18905;42.668;23.364;2023-03-03T03:34:23;95059.47;;;4.06;100.00
28626;BME280;18905;42.668;23.364;2023-03-03T03:36:49;94997.13;;;3.77;100.00
28626;BME280;18905;42.668;23.364;2023-03-03T03:39:14;95036.47;;;4.05;100.00
28626;BME280;18905;42.668;23.364;2023-03-03T03:41:40;95050.75;;;4.29;100.00
28626;BME280;18905;42.668;23.364;2023-03-03T03:44:05;95020.41;;;4.10;100.00
28626;BME280;18905;42.668;23.364;2023-03-03T03:46:30;95024.59;;;4.21;100.00
28626;BME280;18905;42.668;23.364;2023-03-03T03:48:56;95051.81;;;4.28;100.00
28626;BME280;18905;42.668;23.364;2023-03-03T03:51:21;95004.41;;;4.10;100.00
28626;BME280;18905;42.668;23.364;2023-03-03T03:53:47;95018.25;;;4.12;100.00
28626;BME280;18905;42.668;23.364;2023-03-03T03:56:12;95004.94;;;4.07;100.00
28626;BME280;18905;42.668;23.364;2023-03-03T03:58:40;95045.41;;;4.29;100.00
28626;BME280;18905;42.668;23.364;2023-03-03T04:01:06;95038.91;;;4.35;100.00
28626;BME280;18905;42.668;23.364;2023-03-03T04:03:33;95032.13;;;4.19;100.00
28626;BME280;18905;42.668;23.364;2023-03-03T04:05:58;95025.09;;;4.28;100.00
28626;BME280;18905;42.668;23.364;2023-03-03T04:08:24;95035.81;;;4.23;100.00
28626;BME280;18905;42.668;23.364;2023-03-03T04:10:49;95009.34;;;3.88;100.00
28626;BME280;18905;42.668;23.364;2023-03-03T04:13:15;95039.13;;;4.05;100.00
28626;BME280;18905;42.668;23.364;2023-03-03T04:15:41;95047.16;;;4.10;100.00
28626;BME280;18905;42.668;23.364;2023-03-03T04:18:06;95009.63;;;3.86;100.00
28626;BME280;18905;42.668;23.364;2023-03-03T04:20:31;95028.22;;;4.01;100.00
28626;BME280;18905;42.668;23.364;2023-03-03T04:22:57;94998.13;;;3.86;100.00
28626;BME280;18905;42.668;23.364;2023-03-03T04:25:22;95001.41;;;3.78;100.00
28626;BME280;18905;42.668;23.364;2023-03-03T04:27:48;95036.47;;;4.05;100.00
28626;BME280;18905;42.668;23.364;2023-03-03T04:30:15;95021.88;;;3.92;100.00
28626;BME280;18905;42.668;23.364;2023-03-03T04:32:41;95037.50;;;4.09;100.00
28626;BME280;18905;42.668;23.364;2023-03-03T04:35:07;95039.13;;;4.10;100.00
28626;BME280;18905;42.668;23.364;2023-03-03T04:37:32;95040.63;;;4.21;100.00
28626;BME280;18905;42.668;23.364;2023-03-03T04:39:58;95037.50;;;4.09;100.00
28626;BME280;18905;42.668;23.364;2023-03-03T04:42:23;95011.19;;;3.92;100.00
28626;BME280;18905;42.668;23.364;2023-03-03T04:44:49;95032.94;;;4.14;100.00
28626;BME280;18905;42.668;23.364;2023-03-03T04:47:14;95018.09;;;3.98;100.00
28626;BME280;18905;42.668;23.364;2023-03-03T04:49:39;95019.97;;;3.98;100.00
28626;BME280;18905;42.668;23.364;2023-03-03T04:52:05;95040.69;;;4.16;100.00
28626;BME280;18905;42.668;23.364;2023-03-03T04:54:30;95022.38;;;3.99;100.00
28626;BME280;18905;42.668;23.364;2023-03-03T04:56:56;95017.75;;;4.10;100.00
28626;BME280;18905;42.668;23.364;2023-03-03T04:59:21;95015.09;;;4.05;100.00
28626;BME280;18905;42.668;23.364;2023-03-03T05:01:48;95037.50;;;4.09;100.00
28626;BME280;18905;42.668;23.364;2023-03-03T05:04:15;95041.56;;;4.01;100.00
28626;BME280;18905;42.668;23.364;2023-03-03T05:06:40;95046.84;;;4.11;100.00
28626;BME280;18905;42.668;23.364;2023-03-03T05:09:06;95042.81;;;4.14;100.00
28626;BME280;18905;42.668;23.364;2023-03-03T05:11:31;95002.44;;;3.87;100.00
28626;BME280;18905;42.668;23.364;2023-03-03T05:13:57;95019.19;;;3.92;100.00
28626;BME280;18905;42.668;23.364;2023-03-03T05:16:22;95022.13;;;3.96;100.00
28626;BME280;18905;42.668;23.364;2023-03-03T05:18:47;95045.53;;;4.09;100.00
28626;BME280;18905;42.668;23.364;2023-03-03T05:21:13;95056.66;;;4.21;100.00
28626;BME280;18905;42.668;23.364;2023-03-03T05:23:38;95039.59;;;4.17;100.00
28626;BME280;18905;42.668;23.364;2023-03-03T05:26:04;95050.16;;;4.32;100.00
28626;BME280;18905;42.668;23.364;2023-03-03T05:28:29;95054.91;;;4.40;100.00
28626;BME280;18905;42.668;23.364;2023-03-03T05:30:55;95052.09;;;4.26;100.00
28626;BME280;18905;42.668;23.364;2023-03-03T05:33:20;95034.38;;;4.02;100.00
28626;BME280;18905;42.668;23.364;2023-03-03T05:35:45;95038.63;;;4.03;100.00
28626;BME280;18905;42.668;23.364;2023-03-03T05:38:11;95049.81;;;4.10;100.00
28626;BME280;18905;42.668;23.364;2023-03-03T05:40:37;95041.50;;;4.11;100.00
28626;BME280;18905;42.668;23.364;2023-03-03T05:43:03;95019.13;;;4.02;100.00
28626;BME280;18905;42.668;23.364;2023-03-03T05:45:28;95047.56;;;4.22;100.00
28626;BME280;18905;42.668;23.364;2023-03-03T05:47:54;95000.84;;;3.81;100.00
28626;BME280;18905;42.668;23.364;2023-03-03T05:50:20;95044.78;;;4.37;100.00
28626;BME280;18905;42.668;23.364;2023-03-03T05:52:48;95034.44;;;4.30;100.00
28626;BME280;18905;42.668;23.364;2023-03-03T05:55:13;95055.16;;;4.43;100.00
28626;BME280;18905;42.668;23.364;2023-03-03T05:57:39;95062.63;;;4.46;100.00
28626;BME280;18905;42.668;23.364;2023-03-03T06:00:05;95041.28;;;4.41;100.00
28626;BME280;18905;42.668;23.364;2023-03-03T06:02:33;95065.47;;;4.60;100.00
28626;BME280;18905;42.668;23.364;2023-03-03T06:04:59;95057.00;;;4.48;100.00
28626;BME280;18905;42.668;23.364;2023-03-03T06:07:24;95038.31;;;4.43;100.00
28626;BME280;18905;42.668;23.364;2023-03-03T06:09:49;95036.59;;;4.23;100.00
28626;BME280;18905;42.668;23.364;2023-03-03T06:12:15;95063.75;;;4.40;100.00
28626;BME280;18905;42.668;23.364;2023-03-03T06:14:41;95016.81;;;4.24;100.00
28626;BME280;18905;42.668;23.364;2023-03-03T06:17:06;95049.69;;;4.58;100.00
28626;BME280;18905;42.668;23.364;2023-03-03T06:19:32;95047.88;;;4.49;100.00
28626;BME280;18905;42.668;23.364;2023-03-03T06:21:57;95010.16;;;4.22;100.00
28626;BME280;18905;42.668;23.364;2023-03-03T06:24:23;95034.63;;;4.39;100.00
28626;BME280;18905;42.668;23.364;2023-03-03T06:26:50;95049.88;;;4.67;100.00
28626;BME280;18905;42.668;23.364;2023-03-03T06:29:16;95080.19;;;4.86;100.00
28626;BME280;18905;42.668;23.364;2023-03-03T06:31:41;95022.25;;;4.48;100.00
28626;BME280;18905;42.668;23.364;2023-03-03T06:34:07;95011.19;;;4.26;100.00
28626;BME280;18905;42.668;23.364;2023-03-03T06:36:33;95031.94;;;4.39;100.00
28626;BME280;18905;42.668;23.364;2023-03-03T06:38:58;95079.25;;;4.72;100.00
28626;BME280;18905;42.668;23.364;2023-03-03T06:41:25;95038.78;;;4.50;100.00
28626;BME280;18905;42.668;23.364;2023-03-03T06:43:50;95060.13;;;4.60;100.00
28626;BME280;18905;42.668;23.364;2023-03-03T06:46:16;95080.94;;;4.91;100.00
28626;BME280;18905;42.668;23.364;2023-03-03T06:48:42;95050.97;;;4.89;100.00
28626;BME280;18905;42.668;23.364;2023-03-03T06:51:39;95088.31;;;5.51;100.00
28626;BME280;18905;42.668;23.364;2023-03-03T06:54:15;95063.19;;;5.47;100.00
28626;BME280;18905;42.668;23.364;2023-03-03T06:56:42;95084.75;;;5.61;100.00
28626;BME280;18905;42.668;23.364;2023-03-03T06:59:19;95080.28;;;5.75;100.00
28626;BME280;18905;42.668;23.364;2023-03-03T07:01:47;95076.63;;;5.66;100.00
28626;BME280;18905;42.668;23.364;2023-03-03T07:06:43;95083.94;;;5.84;100.00
28626;BME280;18905;42.668;23.364;2023-03-03T07:09:27;95055.78;;;5.63;100.00
28626;BME280;18905;42.668;23.364;2023-03-03T07:12:04;95069.94;;;5.87;100.00
28626;BME280;18905;42.668;23.364;2023-03-03T07:14:30;95053.00;;;6.10;100.00
28626;BME280;18905;42.668;23.364;2023-03-03T07:16:59;95065.19;;;6.21;100.00
28626;BME280;18905;42.668;23.364;2023-03-03T07:19:34;95075.19;;;5.73;100.00
28626;BME280;18905;42.668;23.364;2023-03-03T07:24:38;95012.66;;;5.41;100.00
28626;BME280;18905;42.668;23.364;2023-03-03T07:27:13;94912.06;;;4.51;100.00
28626;BME280;18905;42.668;23.364;2023-03-03T07:29:40;94973.75;;;4.83;100.00
28626;BME280;18905;42.668;23.364;2023-03-03T07:32:26;94912.84;;;4.51;100.00
28626;BME280;18905;42.668;23.364;2023-03-03T07:34:55;95075.56;;;5.67;100.00
28626;BME280;18905;42.668;23.364;2023-03-03T07:37:36;95059.59;;;5.80;100.00
28626;BME280;18905;42.668;23.364;2023-03-03T07:40:37;95065.63;;;5.91;100.00
28626;BME280;18905;42.668;23.364;2023-03-03T07:45:49;95072.13;;;5.85;100.00
28626;BME280;18905;42.668;23.364;2023-03-03T07:48:25;95011.28;;;6.04;100.00
28626;BME280;18905;42.668;23.364;2023-03-03T07:50:57;94921.44;;;5.14;100.00
28626;BME280;18905;42.668;23.364;2023-03-03T07:53:28;94903.41;;;5.01;100.00
28626;BME280;18905;42.668;23.364;2023-03-03T07:55:59;95061.75;;;5.78;100.00
28626;BME280;18905;42.668;23.364;2023-03-03T07:58:41;94955.13;;;4.96;100.00
28626;BME280;18905;42.668;23.364;2023-03-03T08:04:21;94904.88;;;4.46;100.00
28626;BME280;18905;42.668;23.364;2023-03-03T08:06:55;94924.91;;;4.49;100.00
28626;BME280;18905;42.668;23.364;2023-03-03T08:14:34;94885.56;;;4.54;100.00
28626;BME280;18905;42.668;23.364;2023-03-03T08:17:01;94885.28;;;4.56;100.00
28626;BME280;18905;42.668;23.364;2023-03-03T08:19:30;94887.03;;;4.42;100.00
28626;BME280;18905;42.668;23.364;2023-03-03T08:22:00;94985.47;;;4.87;100.00
28626;BME280;18905;42.668;23.364;2023-03-03T08:24:27;94953.59;;;4.67;100.00
28626;BME280;18905;42.668;23.364;2023-03-03T08:26:53;94910.06;;;4.38;100.00
28626;BME280;18905;42.668;23.364;2023-03-03T08:29:19;95052.13;;;5.35;100.00
28626;BME280;18905;42.668;23.364;2023-03-03T08:31:45;94942.34;;;4.70;100.00
28626;BME280;18905;42.668;23.364;2023-03-03T08:34:11;94945.06;;;4.65;100.00
28626;BME280;18905;42.668;23.364;2023-03-03T08:36:36;94882.22;;;4.15;100.00
28626;BME280;18905;42.668;23.364;2023-03-03T08:39:03;94882.75;;;4.41;100.00
28626;BME280;18905;42.668;23.364;2023-03-03T08:41:29;95044.78;;;5.41;100.00
28626;BME280;18905;42.668;23.364;2023-03-03T08:43:55;94887.81;;;4.19;100.00
28626;BME280;18905;42.668;23.364;2023-03-03T08:46:21;95049.53;;;5.25;100.00
28626;BME280;18905;42.668;23.364;2023-03-03T08:48:46;95051.81;;;5.37;100.00
28626;BME280;18905;42.668;23.364;2023-03-03T08:51:12;94933.91;;;4.58;100.00
28626;BME280;18905;42.668;23.364;2023-03-03T08:53:38;94947.69;;;4.70;100.00
28626;BME280;18905;42.668;23.364;2023-03-03T08:56:04;94966.41;;;4.93;100.00
28626;BME280;18905;42.668;23.364;2023-03-03T08:58:31;94918.88;;;4.62;100.00
28626;BME280;18905;42.668;23.364;2023-03-03T09:00:57;95009.56;;;5.34;100.00
28626;BME280;18905;42.668;23.364;2023-03-03T09:03:23;94893.13;;;4.71;100.00
28626;BME280;18905;42.668;23.364;2023-03-03T09:05:49;94903.72;;;4.99;100.00
28626;BME280;18905;42.668;23.364;2023-03-03T09:08:15;94905.22;;;5.29;100.00
28626;BME280;18905;42.668;23.364;2023-03-03T09:10:44;95059.19;;;6.10;100.00
28626;BME280;18905;42.668;23.364;2023-03-03T09:13:13;94895.78;;;5.13;100.00
28626;BME280;18905;42.668;23.364;2023-03-03T09:15:40;94996.94;;;5.95;100.00
28626;BME280;18905;42.668;23.364;2023-03-03T09:18:18;95048.91;;;6.49;100.00
28626;BME280;18905;42.668;23.364;2023-03-03T09:20:54;94891.28;;;5.64;100.00
28626;BME280;18905;42.668;23.364;2023-03-03T09:25:54;94892.31;;;5.68;100.00
28626;BME280;18905;42.668;23.364;2023-03-03T09:28:28;94939.59;;;5.96;100.00
28626;BME280;18905;42.668;23.364;2023-03-03T09:30:59;94936.41;;;5.94;100.00
28626;BME280;18905;42.668;23.364;2023-03-03T09:33:40;94867.34;;;5.54;100.00
28626;BME280;18905;42.668;23.364;2023-03-03T09:36:29;95047.56;;;6.52;100.00
28626;BME280;18905;42.668;23.364;2023-03-03T09:39:00;94888.03;;;5.67;100.00
28626;BME280;18905;42.668;23.364;2023-03-03T09:56:24;95044.78;;;6.89;100.00
28626;BME280;18905;42.668;23.364;2023-03-03T10:09:42;94929.94;;;6.99;100.00
28626;BME280;18905;42.668;23.364;2023-03-03T10:12:15;95037.47;;;7.62;100.00
28626;BME280;18905;42.668;23.364;2023-03-03T10:19:50;95047.47;;;10.32;100.00
28626;BME280;18905;42.668;23.364;2023-03-03T10:25:06;95007.50;;;9.14;100.00
28626;BME280;18905;42.668;23.364;2023-03-03T10:43:27;95008.50;;;8.08;100.00
28626;BME280;18905;42.668;23.364;2023-03-03T10:48:37;94999.63;;;8.43;100.00
28626;BME280;18905;42.668;23.364;2023-03-03T10:51:40;95010.75;;;8.28;100.00
28626;BME280;18905;42.668;23.364;2023-03-03T11:00:00;95004.44;;;7.34;100.00
28626;BME280;18905;42.668;23.364;2023-03-03T11:02:40;94983.25;;;6.92;100.00
28626;BME280;18905;42.668;23.364;2023-03-03T11:07:45;94976.19;;;6.96;100.00
28626;BME280;18905;42.668;23.364;2023-03-03T11:16:16;94981.91;;;7.71;100.00
28626;BME280;18905;42.668;23.364;2023-03-03T11:19:10;94979.84;;;7.41;100.00
28626;BME280;18905;42.668;23.364;2023-03-03T11:21:57;94978.53;;;7.65;100.00
28626;BME280;18905;42.668;23.364;2023-03-03T11:24:46;94970.34;;;7.70;100.00
28626;BME280;18905;42.668;23.364;2023-03-03T11:38:19;94972.69;;;7.23;100.00
28626;BME280;18905;42.668;23.364;2023-03-03T11:44:24;94964.34;;;6.97;100.00
28626;BME280;18905;42.668;23.364;2023-03-03T11:47:03;94976.38;;;7.27;100.00
28626;BME280;18905;42.668;23.364;2023-03-03T11:49:41;94974.25;;;7.51;100.00
28626;BME280;18905;42.668;23.364;2023-03-03T11:52:21;94966.84;;;7.21;100.00
28626;BME280;18905;42.668;23.364;2023-03-03T11:55:22;94964.44;;;7.33;100.00
28626;BME280;18905;42.668;23.364;2023-03-03T12:00:27;94965.16;;;7.74;100.00
28626;BME280;18905;42.668;23.364;2023-03-03T12:05:54;94957.16;;;7.47;100.00
28626;BME280;18905;42.668;23.364;2023-03-03T12:11:24;94955.59;;;7.32;100.00
28626;BME280;18905;42.668;23.364;2023-03-03T12:17:02;94967.03;;;7.87;100.00
28626;BME280;18905;42.668;23.364;2023-03-03T12:19:34;94963.28;;;7.61;100.00
28626;BME280;18905;42.668;23.364;2023-03-03T12:27:48;94959.53;;;7.48;100.00
28626;BME280;18905;42.668;23.364;2023-03-03T12:38:39;94970.31;;;7.21;100.00
28626;BME280;18905;42.668;23.364;2023-03-03T12:43:59;94972.19;;;7.34;100.00
28626;BME280;18905;42.668;23.364;2023-03-03T12:49:10;94975.41;;;7.36;100.00
28626;BME280;18905;42.668;23.364;2023-03-03T12:56:57;94955.00;;;7.84;100.00
28626;BME280;18905;42.668;23.364;2023-03-03T12:59:35;94976.63;;;7.66;100.00
28626;BME280;18905;42.668;23.364;2023-03-03T13:02:14;94974.78;;;7.53;100.00
28626;BME280;18905;42.668;23.364;2023-03-03T13:07:25;94966.44;;;7.27;100.00
28626;BME280;18905;42.668;23.364;2023-03-03T13:12:42;94964.66;;;6.82;100.00
28626;BME280;18905;42.668;23.364;2023-03-03T13:15:14;94942.97;;;7.06;100.00
28626;BME280;18905;42.668;23.364;2023-03-03T13:17:48;94964.66;;;6.96;100.00
28626;BME280;18905;42.668;23.364;2023-03-03T13:20:43;94962.25;;;6.94;100.00
28626;BME280;18905;42.668;23.364;2023-03-03T13:23:39;94968.81;;;7.02;100.00
28626;BME280;18905;42.668;23.364;2023-03-03T13:26:12;94959.47;;;7.40;100.00
28626;BME280;18905;42.668;23.364;2023-03-03T13:29:14;94964.06;;;7.26;100.00
28626;BME280;18905;42.668;23.364;2023-03-03T13:40:47;94956.09;;;7.21;100.00
28626;BME280;18905;42.668;23.364;2023-03-03T13:46:31;94966.72;;;6.85;100.00
28626;BME280;18905;42.668;23.364;2023-03-03T13:49:22;94954.91;;;6.86;100.00
28626;BME280;18905;42.668;23.364;2023-03-03T13:52:02;94954.72;;;6.96;100.00
28626;BME280;18905;42.668;23.364;2023-03-03T13:57:35;94942.97;;;6.92;100.00
28626;BME280;18905;42.668;23.364;2023-03-03T14:05:43;94952.00;;;6.69;100.00
28626;BME280;18905;42.668;23.364;2023-03-03T14:08:55;94959.44;;;6.59;100.00
28626;BME280;18905;42.668;23.364;2023-03-03T14:17:22;94954.78;;;6.64;100.00
28626;BME280;18905;42.668;23.364;2023-03-03T14:20:11;94951.06;;;6.47;100.00
28626;BME280;18905;42.668;23.364;2023-03-03T14:23:19;94954.34;;;6.12;100.00
28626;BME280;18905;42.668;23.364;2023-03-03T14:28:29;94942.22;;;6.46;100.00
28626;BME280;18905;42.668;23.364;2023-03-03T14:31:18;94892.16;;;5.96;100.00
28626;BME280;18905;42.668;23.364;2023-03-03T14:33:56;94920.59;;;6.11;100.00
28626;BME280;18905;42.668;23.364;2023-03-03T14:36:29;94944.53;;;6.53;100.00
28626;BME280;18905;42.668;23.364;2023-03-03T14:38:55;94908.41;;;6.32;100.00
28626;BME280;18905;42.668;23.364;2023-03-03T14:41:32;94924.38;;;6.55;100.00
28626;BME280;18905;42.668;23.364;2023-03-03T14:44:01;94943.47;;;6.81;100.00
28626;BME280;18905;42.668;23.364;2023-03-03T14:46:45;94901.00;;;6.42;100.00
28626;BME280;18905;42.668;23.364;2023-03-03T14:49:31;94941.56;;;6.54;100.00
28626;BME280;18905;42.668;23.364;2023-03-03T14:52:04;94944.78;;;6.38;100.00
28626;BME280;18905;42.668;23.364;2023-03-03T14:54:40;94946.22;;;6.62;100.00
28626;BME280;18905;42.668;23.364;2023-03-03T15:05:31;94939.38;;;7.24;100.00
28626;BME280;18905;42.668;23.364;2023-03-03T15:08:08;94936.03;;;7.18;100.00
28626;BME280;18905;42.668;23.364;2023-03-03T15:18:25;94905.19;;;7.02;100.00
28626;BME280;18905;42.668;23.364;2023-03-03T15:21:11;94947.28;;;7.56;100.00
28626;BME280;18905;42.668;23.364;2023-03-03T15:29:01;94937.34;;;7.92;100.00
28626;BME280;18905;42.668;23.364;2023-03-03T15:37:07;94946.28;;;7.65;100.00
28626;BME280;18905;42.668;23.364;2023-03-03T15:43:05;94952.25;;;7.62;100.00
28626;BME280;18905;42.668;23.364;2023-03-03T15:48:34;94950.06;;;7.64;100.00
28626;BME280;18905;42.668;23.364;2023-03-03T15:56:50;94942.78;;;7.78;100.00
28626;BME280;18905;42.668;23.364;2023-03-03T15:59:27;94954.97;;;7.49;100.00
28626;BME280;18905;42.668;23.364;2023-03-03T16:02:16;94956.78;;;7.26;100.00
28626;BME280;18905;42.668;23.364;2023-03-03T16:24:46;94990.69;;;7.49;100.00
28626;BME280;18905;42.668;23.364;2023-03-03T16:27:14;94989.00;;;7.40;100.00
28626;BME280;18905;42.668;23.364;2023-03-03T16:32:52;94979.53;;;7.56;100.00
28626;BME280;18905;42.668;23.364;2023-03-03T16:35:26;94981.84;;;7.22;100.00
28626;BME280;18905;42.668;23.364;2023-03-03T16:37:58;94978.97;;;7.32;100.00
28626;BME280;18905;42.668;23.364;2023-03-03T16:45:48;94982.94;;;6.94;100.00
28626;BME280;18905;42.668;23.364;2023-03-03T16:48:21;95001.44;;;6.95;100.00
28626;BME280;18905;42.668;23.364;2023-03-03T16:51:15;94996.78;;;7.14;100.00
28626;BME280;18905;42.668;23.364;2023-03-03T16:56:47;95000.31;;;9.40;100.00
28626;BME280;18905;42.668;23.364;2023-03-03T16:59:29;95022.59;;;12.28;100.00
28626;BME280;18905;42.668;23.364;2023-03-03T17:04:53;95010.59;;;15.10;100.00
28626;BME280;18905;42.668;23.364;2023-03-03T17:18:13;95000.34;;;15.19;76.98
28626;BME280;18905;42.668;23.364;2023-03-03T17:20:47;95011.31;;;14.40;82.27
28626;BME280;18905;42.668;23.364;2023-03-03T17:31:56;95012.91;;;11.98;100.00
28626;BME280;18905;42.668;23.364;2023-03-03T17:43:09;95034.47;;;10.43;100.00
28626;BME280;18905;42.668;23.364;2023-03-03T17:45:42;95002.84;;;10.01;100.00
28626;BME280;18905;42.668;23.364;2023-03-03T17:54:04;95039.66;;;9.58;100.00
28626;BME280;18905;42.668;23.364;2023-03-03T17:57:01;95016.19;;;9.11;100.00
28626;BME280;18905;42.668;23.364;2023-03-03T17:59:34;95047.69;;;8.80;100.00